sensor_id;sensor_type;location;lat;lon;timestamp;pressure;altitude;pressure_sealevel;temperature;humidity
1726;BME280;41776;48.260;8.928;2023-04-07T00:01:12;52315.66;;;-145.69;100.00
1726;BME280;41776;48.260;8.928;2023-04-07T00:03:40;52297.84;;;-145.69;100.00
1726;BME280;41776;48.260;8.928;2023-04-07T00:06:08;52347.34;;;-145.69;100.00
1726;BME280;41776;48.260;8.928;2023-04-07T00:08:34;52317.66;;;-145.69;100.00
1726;BME280;41776;48.260;8.928;2023-04-07T00:11:01;52313.69;;;-145.69;100.00
1726;BME280;41776;48.260;8.928;2023-04-07T00:13:27;52297.84;;;-145.69;100.00
1726;BME280;41776;48.260;8.928;2023-04-07T00:15:54;52327.53;;;-145.69;100.00
1726;BME280;41776;48.260;8.928;2023-04-07T00:18:24;52295.84;;;-145.69;100.00
1726;BME280;41776;48.260;8.928;2023-04-07T00:20:52;52303.78;;;-145.69;100.00
1726;BME280;41776;48.260;8.928;2023-04-07T00:23:18;52301.81;;;-145.69;100.00
1726;BME280;41776;48.260;8.928;2023-04-07T00:25:46;52331.50;;;-145.69;100.00
1726;BME280;41776;48.260;8.928;2023-04-07T00:28:13;52337.44;;;-145.69;100.00
1726;BME280;41776;48.260;8.928;2023-04-07T00:30:39;52337.44;;;-145.69;100.00
1726;BME280;41776;48.260;8.928;2023-04-07T00:33:08;52333.47;;;-145.69;100.00
1726;BME280;41776;48.260;8.928;2023-04-07T00:35:36;52321.59;;;-145.69;100.00
1726;BME280;41776;48.260;8.928;2023-04-07T00:38:04;52329.53;;;-145.69;100.00
1726;BME280;41776;48.260;8.928;2023-04-07T00:40:30;52341.41;;;-145.69;100.00
1726;BME280;41776;48.260;8.928;2023-04-07T00:42:57;52315.66;;;-145.69;100.00
1726;BME280;41776;48.260;8.928;2023-04-07T00:45:26;52297.84;;;-145.69;100.00
1726;BME280;41776;48.260;8.928;2023-04-07T00:47:53;52337.44;;;-145.69;100.00
1726;BME280;41776;48.260;8.928;2023-04-07T00:50:21;52327.53;;;-145.69;100.00
1726;BME280;41776;48.260;8.928;2023-04-07T00:52:48;52333.47;;;-145.69;100.00
1726;BME280;41776;48.260;8.928;2023-04-07T00:55:16;52297.84;;;-145.69;100.00
1726;BME280;41776;48.260;8.928;2023-04-07T00:57:42;52341.41;;;-145.69;100.00
1726;BME280;41776;48.260;8.928;2023-04-07T01:00:11;52291.91;;;-145.69;100.00
1726;BME280;41776;48.260;8.928;2023-04-07T01:02:40;52297.84;;;-145.69;100.00
1726;BME280;41776;48.260;8.928;2023-04-07T01:05:13;52321.59;;;-145.69;100.00
1726;BME280;41776;48.260;8.928;2023-04-07T01:07:50;52295.84;;;-145.69;100.00
1726;BME280;41776;48.260;8.928;2023-04-07T01:10:24;52341.41;;;-145.69;100.00
1726;BME280;41776;48.260;8.928;2023-04-07T01:12:56;52321.59;;;-145.69;100.00
1726;BME280;41776;48.260;8.928;2023-04-07T01:15:26;52293.88;;;-145.69;100.00
1726;BME280;41776;48.260;8.928;2023-04-07T01:18:00;52311.69;;;-145.69;100.00
1726;BME280;41776;48.260;8.928;2023-04-07T01:20:31;52325.56;;;-145.69;100.00
1726;BME280;41776;48.260;8.928;2023-04-07T01:23:01;52319.63;;;-145.69;100.00
1726;BME280;41776;48.260;8.928;2023-04-07T01:25:51;52327.53;;;-145.69;100.00
1726;BME280;41776;48.260;8.928;2023-04-07T01:31:22;52327.53;;;-145.69;100.00
1726;BME280;41776;48.260;8.928;2023-04-07T01:33:51;52321.59;;;-145.69;100.00
1726;BME280;41776;48.260;8.928;2023-04-07T01:36:18;52335.47;;;-145.69;100.00
1726;BME280;41776;48.260;8.928;2023-04-07T01:38:46;52317.66;;;-145.69;100.00
1726;BME280;41776;48.260;8.928;2023-04-07T01:41:15;52355.28;;;-145.69;100.00
1726;BME280;41776;48.260;8.928;2023-04-07T01:43:43;52337.44;;;-145.69;100.00
1726;BME280;41776;48.260;8.928;2023-04-07T01:46:10;52351.31;;;-145.69;100.00
1726;BME280;41776;48.260;8.928;2023-04-07T01:48:38;52309.72;;;-145.69;100.00
1726;BME280;41776;48.260;8.928;2023-04-07T01:51:06;52353.28;;;-145.69;100.00
1726;BME280;41776;48.260;8.928;2023-04-07T01:53:36;52321.59;;;-145.69;100.00
1726;BME280;41776;48.260;8.928;2023-04-07T01:56:04;52339.44;;;-145.69;100.00
1726;BME280;41776;48.260;8.928;2023-04-07T01:58:30;52343.38;;;-145.69;100.00
1726;BME280;41776;48.260;8.928;2023-04-07T02:00:58;52323.59;;;-145.69;100.00
1726;BME280;41776;48.260;8.928;2023-04-07T02:03:29;52305.75;;;-145.69;100.00
1726;BME280;41776;48.260;8.928;2023-04-07T02:06:05;52313.69;;;-145.69;100.00
1726;BME280;41776;48.260;8.928;2023-04-07T02:08:32;52345.38;;;-145.69;100.00
1726;BME280;41776;48.260;8.928;2023-04-07T02:11:02;52335.47;;;-145.69;100.00
1726;BME280;41776;48.260;8.928;2023-04-07T02:13:33;52323.59;;;-145.69;100.00
1726;BME280;41776;48.260;8.928;2023-04-07T02:16:00;52363.19;;;-145.69;100.00
1726;BME280;41776;48.260;8.928;2023-04-07T02:18:29;52321.59;;;-145.69;100.00
1726;BME280;41776;48.260;8.928;2023-04-07T02:20:58;52341.41;;;-145.69;100.00
1726;BME280;41776;48.260;8.928;2023-04-07T02:23:26;52353.28;;;-145.69;100.00
1726;BME280;41776;48.260;8.928;2023-04-07T02:25:55;52333.47;;;-145.69;100.00
1726;BME280;41776;48.260;8.928;2023-04-07T02:28:21;52341.41;;;-145.69;100.00
1726;BME280;41776;48.260;8.928;2023-04-07T02:30:48;52363.19;;;-145.69;100.00
1726;BME280;41776;48.260;8.928;2023-04-07T02:33:14;52341.41;;;-145.69;100.00
1726;BME280;41776;48.260;8.928;2023-04-07T02:35:41;52321.59;;;-145.69;100.00
1726;BME280;41776;48.260;8.928;2023-04-07T02:38:09;52321.59;;;-145.69;100.00
1726;BME280;41776;48.260;8.928;2023-04-07T02:40:36;52341.41;;;-145.69;100.00
1726;BME280;41776;48.260;8.928;2023-04-07T02:43:04;52351.31;;;-145.69;100.00
1726;BME280;41776;48.260;8.928;2023-04-07T02:45:33;52337.44;;;-145.69;100.00
1726;BME280;41776;48.260;8.928;2023-04-07T02:48:00;52333.47;;;-145.69;100.00
1726;BME280;41776;48.260;8.928;2023-04-07T02:50:26;52317.66;;;-145.69;100.00
1726;BME280;41776;48.260;8.928;2023-04-07T02:52:53;52321.59;;;-145.69;100.00
1726;BME280;41776;48.260;8.928;2023-04-07T02:55:21;52377.06;;;-145.69;100.00
1726;BME280;41776;48.260;8.928;2023-04-07T02:57:47;52321.59;;;-145.69;100.00
1726;BME280;41776;48.260;8.928;2023-04-07T03:00:14;52351.31;;;-145.69;100.00
1726;BME280;41776;48.260;8.928;2023-04-07T03:02:41;52339.44;;;-145.69;100.00
1726;BME280;41776;48.260;8.928;2023-04-07T03:05:08;52313.69;;;-145.69;100.00
1726;BME280;41776;48.260;8.928;2023-04-07T03:07:34;52361.22;;;-145.69;100.00
1726;BME280;41776;48.260;8.928;2023-04-07T03:10:01;52329.53;;;-145.69;100.00
1726;BME280;41776;48.260;8.928;2023-04-07T03:12:29;52333.47;;;-145.69;100.00
1726;BME280;41776;48.260;8.928;2023-04-07T03:14:55;52353.28;;;-145.69;100.00
1726;BME280;41776;48.260;8.928;2023-04-07T03:17:22;52349.31;;;-145.69;100.00
1726;BME280;41776;48.260;8.928;2023-04-07T03:19:48;52353.28;;;-145.69;100.00
1726;BME280;41776;48.260;8.928;2023-04-07T03:22:16;52325.56;;;-145.69;100.00
1726;BME280;41776;48.260;8.928;2023-04-07T03:24:45;52321.59;;;-145.69;100.00
1726;BME280;41776;48.260;8.928;2023-04-07T03:27:11;52343.38;;;-145.69;100.00
1726;BME280;41776;48.260;8.928;2023-04-07T03:29:39;52329.53;;;-145.69;100.00
1726;BME280;41776;48.260;8.928;2023-04-07T03:32:06;52369.13;;;-145.69;100.00
1726;BME280;41776;48.260;8.928;2023-04-07T03:34:32;52325.56;;;-145.69;100.00
1726;BME280;41776;48.260;8.928;2023-04-07T03:36:59;52327.53;;;-145.69;100.00
1726;BME280;41776;48.260;8.928;2023-04-07T03:39:27;52345.38;;;-145.69;100.00
1726;BME280;41776;48.260;8.928;2023-04-07T03:41:54;52333.47;;;-145.69;100.00
1726;BME280;41776;48.260;8.928;2023-04-07T03:44:20;52345.38;;;-145.69;100.00
1726;BME280;41776;48.260;8.928;2023-04-07T03:46:52;52311.69;;;-145.69;100.00
1726;BME280;41776;48.260;8.928;2023-04-07T03:49:18;52373.09;;;-145.69;100.00
1726;BME280;41776;48.260;8.928;2023-04-07T03:51:45;52353.28;;;-145.69;100.00
1726;BME280;41776;48.260;8.928;2023-04-07T03:54:11;52329.53;;;-145.69;100.00
1726;BME280;41776;48.260;8.928;2023-04-07T03:56:38;52367.16;;;-145.69;100.00
1726;BME280;41776;48.260;8.928;2023-04-07T03:59:05;52365.16;;;-145.69;100.00
1726;BME280;41776;48.260;8.928;2023-04-07T04:01:31;52323.59;;;-145.69;100.00
1726;BME280;41776;48.260;8.928;2023-04-07T04:03:59;52341.41;;;-145.69;100.00
1726;BME280;41776;48.260;8.928;2023-04-07T04:06:26;52329.53;;;-145.69;100.00
1726;BME280;41776;48.260;8.928;2023-04-07T04:08:55;52317.66;;;-145.69;100.00
1726;BME280;41776;48.260;8.928;2023-04-07T04:11:24;52353.28;;;-145.69;100.00
1726;BME280;41776;48.260;8.928;2023-04-07T04:13:51;52365.16;;;-145.69;100.00
1726;BME280;41776;48.260;8.928;2023-04-07T04:16:20;52325.56;;;-145.69;100.00
1726;BME280;41776;48.260;8.928;2023-04-07T04:18:49;52369.13;;;-145.69;100.00
1726;BME280;41776;48.260;8.928;2023-04-07T04:21:17;52345.38;;;-145.69;100.00
1726;BME280;41776;48.260;8.928;2023-04-07T04:23:47;52323.59;;;-145.69;100.00
1726;BME280;41776;48.260;8.928;2023-04-07T04:26:16;52359.22;;;-145.69;100.00
1726;BME280;41776;48.260;8.928;2023-04-07T04:28:43;52323.59;;;-145.69;100.00
1726;BME280;41776;48.260;8.928;2023-04-07T04:31:09;52379.03;;;-145.69;100.00
1726;BME280;41776;48.260;8.928;2023-04-07T04:33:36;52337.44;;;-145.69;100.00
1726;BME280;41776;48.260;8.928;2023-04-07T04:36:03;52355.28;;;-145.69;100.00
1726;BME280;41776;48.260;8.928;2023-04-07T04:38:31;52355.28;;;-145.69;100.00
1726;BME280;41776;48.260;8.928;2023-04-07T04:40:57;52365.16;;;-145.69;100.00
1726;BME280;41776;48.260;8.928;2023-04-07T04:43:28;52373.09;;;-145.69;100.00
1726;BME280;41776;48.260;8.928;2023-04-07T04:45:56;52353.28;;;-145.69;100.00
1726;BME280;41776;48.260;8.928;2023-04-07T04:48:25;52331.50;;;-145.69;100.00
1726;BME280;41776;48.260;8.928;2023-04-07T04:50:52;52337.44;;;-145.69;100.00
1726;BME280;41776;48.260;8.928;2023-04-07T04:53:21;52365.16;;;-145.69;100.00
1726;BME280;41776;48.260;8.928;2023-04-07T04:55:50;52305.75;;;-145.69;100.00
1726;BME280;41776;48.260;8.928;2023-04-07T04:58:17;52369.13;;;-145.69;100.00
1726;BME280;41776;48.260;8.928;2023-04-07T05:00:44;52337.44;;;-145.69;100.00
1726;BME280;41776;48.260;8.928;2023-04-07T05:03:10;52381.00;;;-145.69;100.00
1726;BME280;41776;48.260;8.928;2023-04-07T05:05:37;52371.13;;;-145.69;100.00
1726;BME280;41776;48.260;8.928;2023-04-07T05:08:04;52384.97;;;-145.69;100.00
1726;BME280;41776;48.260;8.928;2023-04-07T05:10:30;52373.09;;;-145.69;100.00
1726;BME280;41776;48.260;8.928;2023-04-07T05:12:58;52365.16;;;-145.69;100.00
1726;BME280;41776;48.260;8.928;2023-04-07T05:15:25;52357.25;;;-145.69;100.00
1726;BME280;41776;48.260;8.928;2023-04-07T05:17:51;52373.09;;;-145.69;100.00
1726;BME280;41776;48.260;8.928;2023-04-07T05:20:20;52396.84;;;-145.69;100.00
1726;BME280;41776;48.260;8.928;2023-04-07T05:22:47;52367.16;;;-145.69;100.00
1726;BME280;41776;48.260;8.928;2023-04-07T05:25:13;52369.13;;;-145.69;100.00
1726;BME280;41776;48.260;8.928;2023-04-07T05:27:40;52379.03;;;-145.69;100.00
1726;BME280;41776;48.260;8.928;2023-04-07T05:30:09;52341.41;;;-145.69;100.00
1726;BME280;41776;48.260;8.928;2023-04-07T05:32:35;52339.44;;;-145.69;100.00
1726;BME280;41776;48.260;8.928;2023-04-07T05:35:04;52339.44;;;-145.69;100.00
1726;BME280;41776;48.260;8.928;2023-04-07T05:37:31;52373.09;;;-145.69;100.00
1726;BME280;41776;48.260;8.928;2023-04-07T05:39:57;52377.06;;;-145.69;100.00
1726;BME280;41776;48.260;8.928;2023-04-07T05:42:24;52347.34;;;-145.69;100.00
1726;BME280;41776;48.260;8.928;2023-04-07T05:44:54;52381.00;;;-145.69;100.00
1726;BME280;41776;48.260;8.928;2023-04-07T05:47:22;52353.28;;;-145.69;100.00
1726;BME280;41776;48.260;8.928;2023-04-07T05:49:51;52384.97;;;-145.69;100.00
1726;BME280;41776;48.260;8.928;2023-04-07T05:52:17;52351.31;;;-145.69;100.00
1726;BME280;41776;48.260;8.928;2023-04-07T05:54:44;52327.53;;;-145.69;100.00
1726;BME280;41776;48.260;8.928;2023-04-07T05:57:10;52363.19;;;-145.69;100.00
1726;BME280;41776;48.260;8.928;2023-04-07T05:59:37;52369.13;;;-145.69;100.00
1726;BME280;41776;48.260;8.928;2023-04-07T06:02:03;52329.53;;;-145.69;100.00
1726;BME280;41776;48.260;8.928;2023-04-07T06:04:31;52349.31;;;-145.69;100.00
1726;BME280;41776;48.260;8.928;2023-04-07T06:06:59;52361.22;;;-145.69;100.00
1726;BME280;41776;48.260;8.928;2023-04-07T06:09:27;52341.41;;;-145.69;100.00
1726;BME280;41776;48.260;8.928;2023-04-07T06:11:54;52333.47;;;-145.69;100.00
1726;BME280;41776;48.260;8.928;2023-04-07T06:14:21;52363.19;;;-145.69;100.00
1726;BME280;41776;48.260;8.928;2023-04-07T06:16:59;52355.28;;;-145.69;100.00
1726;BME280;41776;48.260;8.928;2023-04-07T06:19:25;52365.16;;;-145.69;100.00
1726;BME280;41776;48.260;8.928;2023-04-07T06:21:53;52347.34;;;-145.69;100.00
1726;BME280;41776;48.260;8.928;2023-04-07T06:24:20;52341.41;;;-145.69;100.00
1726;BME280;41776;48.260;8.928;2023-04-07T06:26:51;52343.38;;;-145.69;100.00
1726;BME280;41776;48.260;8.928;2023-04-07T06:29:17;52325.56;;;-145.69;100.00
1726;BME280;41776;48.260;8.928;2023-04-07T06:31:44;52365.16;;;-145.69;100.00
1726;BME280;41776;48.260;8.928;2023-04-07T06:34:10;52377.06;;;-145.69;100.00
1726;BME280;41776;48.260;8.928;2023-04-07T06:36:38;52321.59;;;-145.69;100.00
1726;BME280;41776;48.260;8.928;2023-04-07T06:39:06;52349.31;;;-145.69;100.00
1726;BME280;41776;48.260;8.928;2023-04-07T06:41:35;52317.66;;;-145.69;100.00
1726;BME280;41776;48.260;8.928;2023-04-07T06:44:03;52337.44;;;-145.69;100.00
1726;BME280;41776;48.260;8.928;2023-04-07T06:46:30;52337.44;;;-145.69;100.00
1726;BME280;41776;48.260;8.928;2023-04-07T06:48:56;52317.66;;;-145.69;100.00
1726;BME280;41776;48.260;8.928;2023-04-07T06:51:23;52325.56;;;-145.69;100.00
1726;BME280;41776;48.260;8.928;2023-04-07T06:53:50;52357.25;;;-145.69;100.00
1726;BME280;41776;48.260;8.928;2023-04-07T06:56:19;52365.16;;;-145.69;100.00
1726;BME280;41776;48.260;8.928;2023-04-07T06:58:46;52331.50;;;-145.69;100.00
1726;BME280;41776;48.260;8.928;2023-04-07T07:01:12;52349.31;;;-145.69;100.00
1726;BME280;41776;48.260;8.928;2023-04-07T07:03:39;52361.22;;;-145.69;100.00
1726;BME280;41776;48.260;8.928;2023-04-07T07:06:06;52319.63;;;-145.69;100.00
1726;BME280;41776;48.260;8.928;2023-04-07T07:08:39;52282.00;;;-145.69;100.00
1726;BME280;41776;48.260;8.928;2023-04-07T07:11:06;52335.47;;;-145.69;100.00
1726;BME280;41776;48.260;8.928;2023-04-07T07:13:34;52323.59;;;-145.69;100.00
1726;BME280;41776;48.260;8.928;2023-04-07T07:16:00;52329.53;;;-145.69;100.00
1726;BME280;41776;48.260;8.928;2023-04-07T07:18:26;52331.50;;;-145.69;100.00
1726;BME280;41776;48.260;8.928;2023-04-07T07:20:53;52333.47;;;-145.69;98.84
1726;BME280;41776;48.260;8.928;2023-04-07T07:23:20;52297.84;;;-145.69;99.66
1726;BME280;41776;48.260;8.928;2023-04-07T07:25:46;52293.88;;;-145.69;99.98
1726;BME280;41776;48.260;8.928;2023-04-07T07:28:13;52293.88;;;-145.69;100.00
1726;BME280;41776;48.260;8.928;2023-04-07T07:30:41;52297.84;;;-145.69;95.07
1726;BME280;41776;48.260;8.928;2023-04-07T07:33:07;52305.75;;;-145.69;95.41
1726;BME280;41776;48.260;8.928;2023-04-07T07:35:34;52295.84;;;-145.69;96.19
1726;BME280;41776;48.260;8.928;2023-04-07T07:38:02;52293.88;;;-145.69;95.92
1726;BME280;41776;48.260;8.928;2023-04-07T07:40:28;52303.78;;;-145.69;95.97
1726;BME280;41776;48.260;8.928;2023-04-07T07:42:55;52266.16;;;-145.69;95.63
1726;BME280;41776;48.260;8.928;2023-04-07T07:45:25;52309.72;;;-145.69;92.97
1726;BME280;41776;48.260;8.928;2023-04-07T07:47:53;52297.84;;;-145.69;91.04
1726;BME280;41776;48.260;8.928;2023-04-07T07:50:20;52297.84;;;-145.69;88.38
1726;BME280;41776;48.260;8.928;2023-04-07T07:52:49;52301.81;;;-145.69;86.50
1726;BME280;41776;48.260;8.928;2023-04-07T07:55:17;52282.00;;;-145.69;86.36
1726;BME280;41776;48.260;8.928;2023-04-07T07:57:44;52268.13;;;-145.69;84.76
1726;BME280;41776;48.260;8.928;2023-04-07T08:00:12;52285.97;;;-145.69;87.26
1726;BME280;41776;48.260;8.928;2023-04-07T08:02:38;52289.91;;;-145.69;88.90
1726;BME280;41776;48.260;8.928;2023-04-07T08:05:07;52272.09;;;-145.69;88.19
1726;BME280;41776;48.260;8.928;2023-04-07T08:07:33;52299.81;;;-145.69;85.00
1726;BME280;41776;48.260;8.928;2023-04-07T08:10:00;52291.91;;;-145.69;88.49
1726;BME280;41776;48.260;8.928;2023-04-07T08:12:27;52305.75;;;-145.69;88.72
1726;BME280;41776;48.260;8.928;2023-04-07T08:14:53;52278.03;;;-145.69;92.31
1726;BME280;41776;48.260;8.928;2023-04-07T08:17:20;52276.06;;;-145.69;95.66
1726;BME280;41776;48.260;8.928;2023-04-07T08:19:46;52291.91;;;-145.69;93.01
1726;BME280;41776;48.260;8.928;2023-04-07T08:22:14;52293.88;;;-145.69;88.66
1726;BME280;41776;48.260;8.928;2023-04-07T08:24:43;52262.19;;;-145.69;86.93
1726;BME280;41776;48.260;8.928;2023-04-07T08:27:10;52309.72;;;-145.69;88.60
1726;BME280;41776;48.260;8.928;2023-04-07T08:29:37;52246.34;;;-145.69;87.22
1726;BME280;41776;48.260;8.928;2023-04-07T08:32:04;52266.16;;;-145.69;90.09
1726;BME280;41776;48.260;8.928;2023-04-07T08:34:30;52285.97;;;-145.69;92.66
1726;BME280;41776;48.260;8.928;2023-04-07T08:36:57;52230.50;;;-145.69;80.58
1726;BME280;41776;48.260;8.928;2023-04-07T08:39:27;52266.16;;;-145.69;81.04
1726;BME280;41776;48.260;8.928;2023-04-07T08:41:54;52293.88;;;-145.69;85.67
1726;BME280;41776;48.260;8.928;2023-04-07T08:44:24;52266.16;;;-145.69;86.10
1726;BME280;41776;48.260;8.928;2023-04-07T08:46:56;52266.16;;;-145.69;89.90
1726;BME280;41776;48.260;8.928;2023-04-07T08:49:27;52272.09;;;-145.69;90.53
1726;BME280;41776;48.260;8.928;2023-04-07T08:51:55;52270.13;;;-145.69;85.43
1726;BME280;41776;48.260;8.928;2023-04-07T08:54:25;52282.00;;;-145.69;84.21
1726;BME280;41776;48.260;8.928;2023-04-07T08:56:53;52289.91;;;-145.69;82.75
1726;BME280;41776;48.260;8.928;2023-04-07T08:59:20;52303.78;;;-145.69;81.28
1726;BME280;41776;48.260;8.928;2023-04-07T09:01:51;52278.03;;;-145.69;82.49
1726;BME280;41776;48.260;8.928;2023-04-07T09:04:18;52252.28;;;-145.69;80.10
1726;BME280;41776;48.260;8.928;2023-04-07T09:06:44;52282.00;;;-145.69;84.22
1726;BME280;41776;48.260;8.928;2023-04-07T09:09:11;52268.13;;;-145.69;82.28
1726;BME280;41776;48.260;8.928;2023-04-07T09:11:39;52262.19;;;-145.69;79.78
1726;BME280;41776;48.260;8.928;2023-04-07T09:14:06;52234.47;;;-145.69;77.52
1726;BME280;41776;48.260;8.928;2023-04-07T09:16:32;52248.34;;;-145.69;80.85
1726;BME280;41776;48.260;8.928;2023-04-07T09:18:59;52297.84;;;-145.69;79.36
1726;BME280;41776;48.260;8.928;2023-04-07T09:21:25;52270.13;;;-145.69;73.30
1726;BME280;41776;48.260;8.928;2023-04-07T09:23:52;52264.16;;;-145.69;72.98
1726;BME280;41776;48.260;8.928;2023-04-07T09:26:21;52270.13;;;-145.69;70.31
1726;BME280;41776;48.260;8.928;2023-04-07T09:28:52;52285.97;;;-145.69;81.89
1726;BME280;41776;48.260;8.928;2023-04-07T09:31:19;52291.91;;;-145.69;84.12
1726;BME280;41776;48.260;8.928;2023-04-07T09:33:47;52258.22;;;-145.69;82.63
1726;BME280;41776;48.260;8.928;2023-04-07T09:36:13;52266.16;;;-145.69;89.34
1726;BME280;41776;48.260;8.928;2023-04-07T09:38:40;52262.19;;;-145.69;82.56
1726;BME280;41776;48.260;8.928;2023-04-07T09:41:08;52248.34;;;-145.69;85.54
1726;BME280;41776;48.260;8.928;2023-04-07T09:43:36;52254.28;;;-145.69;83.31
1726;BME280;41776;48.260;8.928;2023-04-07T09:46:08;52256.25;;;-145.69;76.61
1726;BME280;41776;48.260;8.928;2023-04-07T09:48:36;52274.06;;;-145.69;75.13
1726;BME280;41776;48.260;8.928;2023-04-07T09:51:07;52274.06;;;-145.69;73.09
1726;BME280;41776;48.260;8.928;2023-04-07T09:53:45;52238.44;;;-145.69;63.19
1726;BME280;41776;48.260;8.928;2023-04-07T09:56:13;52238.44;;;-145.69;60.21
1726;BME280;41776;48.260;8.928;2023-04-07T09:58:42;52230.50;;;-145.69;59.95
1726;BME280;41776;48.260;8.928;2023-04-07T10:01:11;52250.31;;;-145.69;65.57
1726;BME280;41776;48.260;8.928;2023-04-07T10:03:38;52222.59;;;-145.69;60.43
1726;BME280;41776;48.260;8.928;2023-04-07T10:06:05;52234.47;;;-145.69;54.92
1726;BME280;41776;48.260;8.928;2023-04-07T10:08:33;52262.19;;;-145.69;54.58
1726;BME280;41776;48.260;8.928;2023-04-07T10:11:00;52222.59;;;-145.69;55.48
1726;BME280;41776;48.260;8.928;2023-04-07T10:13:28;52268.13;;;-145.69;52.45
1726;BME280;41776;48.260;8.928;2023-04-07T10:15:55;52234.47;;;-145.69;56.75
1726;BME280;41776;48.260;8.928;2023-04-07T10:18:28;52234.47;;;-145.69;54.83
1726;BME280;41776;48.260;8.928;2023-04-07T10:20:56;52262.19;;;-145.69;53.42
1726;BME280;41776;48.260;8.928;2023-04-07T10:23:26;52258.22;;;-145.69;54.16
1726;BME280;41776;48.260;8.928;2023-04-07T10:25:55;52258.22;;;-145.69;63.31
1726;BME280;41776;48.260;8.928;2023-04-07T10:28:25;52250.31;;;-145.69;57.33
1726;BME280;41776;48.260;8.928;2023-04-07T10:30:52;52238.44;;;-145.69;60.24
1726;BME280;41776;48.260;8.928;2023-04-07T10:33:45;52262.19;;;-145.69;62.85
1726;BME280;41776;48.260;8.928;2023-04-07T10:36:12;52262.19;;;-145.69;59.72
1726;BME280;41776;48.260;8.928;2023-04-07T10:38:39;52262.19;;;-145.69;63.31
1726;BME280;41776;48.260;8.928;2023-04-07T10:41:30;52222.59;;;-145.69;58.63
1726;BME280;41776;48.260;8.928;2023-04-07T10:43:57;52186.94;;;-145.69;54.00
1726;BME280;41776;48.260;8.928;2023-04-07T10:46:23;52226.53;;;-145.69;54.49
1726;BME280;41776;48.260;8.928;2023-04-07T10:49:09;52194.88;;;-145.69;48.36
1726;BME280;41776;48.260;8.928;2023-04-07T10:51:37;52220.59;;;-145.69;51.76
1726;BME280;41776;48.260;8.928;2023-04-07T10:54:19;52230.50;;;-145.69;51.55
1726;BME280;41776;48.260;8.928;2023-04-07T10:57:06;52256.25;;;-145.69;57.45
1726;BME280;41776;48.260;8.928;2023-04-07T10:59:35;52266.16;;;-145.69;62.40
1726;BME280;41776;48.260;8.928;2023-04-07T11:02:30;52218.63;;;-145.69;58.54
1726;BME280;41776;48.260;8.928;2023-04-07T11:05:02;52246.34;;;-145.69;58.46
1726;BME280;41776;48.260;8.928;2023-04-07T11:07:46;52254.28;;;-145.69;61.54
1726;BME280;41776;48.260;8.928;2023-04-07T11:10:14;52234.47;;;-145.69;60.72
1726;BME280;41776;48.260;8.928;2023-04-07T11:12:43;52246.34;;;-145.69;55.57
1726;BME280;41776;48.260;8.928;2023-04-07T11:15:16;52236.44;;;-145.69;51.81
1726;BME280;41776;48.260;8.928;2023-04-07T11:17:43;52244.38;;;-145.69;51.33
1726;BME280;41776;48.260;8.928;2023-04-07T11:20:11;52252.28;;;-145.69;51.55
1726;BME280;41776;48.260;8.928;2023-04-07T11:22:37;52250.31;;;-145.69;55.54
1726;BME280;41776;48.260;8.928;2023-04-07T11:25:19;52234.47;;;-145.69;55.44
1726;BME280;41776;48.260;8.928;2023-04-07T11:27:46;52248.34;;;-145.69;55.28
1726;BME280;41776;48.260;8.928;2023-04-07T11:30:14;52226.53;;;-145.69;56.52
1726;BME280;41776;48.260;8.928;2023-04-07T11:32:47;52250.31;;;-145.69;51.26
1726;BME280;41776;48.260;8.928;2023-04-07T11:35:15;52226.53;;;-145.69;50.58
1726;BME280;41776;48.260;8.928;2023-04-07T11:37:41;52244.38;;;-145.69;66.01
1726;BME280;41776;48.260;8.928;2023-04-07T11:40:09;52236.44;;;-145.69;69.23
1726;BME280;41776;48.260;8.928;2023-04-07T11:42:39;52212.69;;;-145.69;75.99
1726;BME280;41776;48.260;8.928;2023-04-07T11:45:15;52256.25;;;-145.69;77.79
1726;BME280;41776;48.260;8.928;2023-04-07T11:47:42;52250.31;;;-145.69;76.02
1726;BME280;41776;48.260;8.928;2023-04-07T11:50:09;52218.63;;;-145.69;73.55
1726;BME280;41776;48.260;8.928;2023-04-07T11:52:45;52226.53;;;-145.69;74.56
1726;BME280;41776;48.260;8.928;2023-04-07T11:55:18;52242.38;;;-145.69;68.22
1726;BME280;41776;48.260;8.928;2023-04-07T11:57:46;52262.19;;;-145.69;77.72
1726;BME280;41776;48.260;8.928;2023-04-07T12:00:13;52270.13;;;-145.69;77.05
1726;BME280;41776;48.260;8.928;2023-04-07T12:02:40;52258.22;;;-145.69;77.10
1726;BME280;41776;48.260;8.928;2023-04-07T12:05:07;52262.19;;;-145.69;76.51
1726;BME280;41776;48.260;8.928;2023-04-07T12:07:34;52285.97;;;-145.69;81.17
1726;BME280;41776;48.260;8.928;2023-04-07T12:10:21;52234.47;;;-145.69;78.40
1726;BME280;41776;48.260;8.928;2023-04-07T12:12:49;52246.34;;;-145.69;79.56
1726;BME280;41776;48.260;8.928;2023-04-07T12:15:16;52289.91;;;-145.69;79.54
1726;BME280;41776;48.260;8.928;2023-04-07T12:17:44;52228.53;;;-145.69;75.00
1726;BME280;41776;48.260;8.928;2023-04-07T12:20:11;52226.53;;;-145.69;73.05
1726;BME280;41776;48.260;8.928;2023-04-07T12:22:40;52214.66;;;-145.69;72.76
1726;BME280;41776;48.260;8.928;2023-04-07T12:25:10;52208.72;;;-145.69;70.97
1726;BME280;41776;48.260;8.928;2023-04-07T12:27:39;52246.34;;;-145.69;77.80
1726;BME280;41776;48.260;8.928;2023-04-07T12:30:07;52240.41;;;-145.69;75.34
1726;BME280;41776;48.260;8.928;2023-04-07T12:32:33;52258.22;;;-145.69;76.51
1726;BME280;41776;48.260;8.928;2023-04-07T12:35:01;52232.50;;;-145.69;75.57
1726;BME280;41776;48.260;8.928;2023-04-07T12:37:28;52246.34;;;-145.69;85.13
1726;BME280;41776;48.260;8.928;2023-04-07T12:39:55;52246.34;;;-145.69;89.76
1726;BME280;41776;48.260;8.928;2023-04-07T12:42:23;52250.31;;;-145.69;92.13
1726;BME280;41776;48.260;8.928;2023-04-07T12:44:51;52248.34;;;-145.69;100.00
1726;BME280;41776;48.260;8.928;2023-04-07T12:47:17;52260.22;;;-145.69;100.00
1726;BME280;41776;48.260;8.928;2023-04-07T12:49:44;52254.28;;;-145.69;100.00
1726;BME280;41776;48.260;8.928;2023-04-07T12:52:10;52252.28;;;-145.69;100.00